createdAt,value
2022-09-12T00:00:01.559Z,6
2022-09-12T00:04:01.870Z,5
2022-09-12T00:08:01.559Z,5
2022-09-12T00:12:02.131Z,8
2022-09-12T00:16:02.101Z,6
2022-09-12T00:20:02.126Z,6
2022-09-12T00:24:01.868Z,5
2022-09-12T00:28:01.645Z,5
2022-09-12T00:32:01.617Z,5
2022-09-12T00:36:02.110Z,6
2022-09-12T00:40:01.356Z,6
2022-09-12T00:44:01.759Z,6
2022-09-12T00:48:01.387Z,6
2022-09-12T00:52:02.150Z,5
2022-09-12T00:56:02.175Z,5
2022-09-12T01:00:04.251Z,6
2022-09-12T01:04:01.972Z,5
2022-09-12T01:08:02.245Z,5
2022-09-12T01:12:01.860Z,6
2022-09-12T01:16:02.002Z,6
2022-09-12T01:20:02.009Z,6
2022-09-12T01:24:01.423Z,6
2022-09-12T01:28:02.028Z,5
2022-09-12T01:32:01.995Z,5
2022-09-12T01:36:02.008Z,5
2022-09-12T01:40:01.853Z,5
2022-09-12T01:44:01.673Z,5
2022-09-12T01:48:02.088Z,8
2022-09-12T01:52:01.522Z,6
2022-09-12T01:56:01.562Z,6
2022-09-12T02:00:04.916Z,6
2022-09-12T02:04:02.113Z,6
2022-09-12T02:08:01.813Z,6
2022-09-12T02:12:01.323Z,6
2022-09-12T02:16:01.919Z,4
2022-09-12T02:20:01.907Z,4
2022-09-12T02:24:02.212Z,6
2022-09-12T02:28:01.528Z,8
2022-09-12T02:32:01.837Z,8
2022-09-12T02:36:01.745Z,5
2022-09-12T02:40:01.969Z,5
2022-09-12T02:44:02.147Z,5
2022-09-12T02:48:01.752Z,5
2022-09-12T02:52:02.250Z,5
2022-09-12T02:56:02.160Z,5
2022-09-12T03:00:01.793Z,5
2022-09-12T03:04:01.483Z,7
2022-09-12T03:08:02.136Z,7
2022-09-12T03:12:02.030Z,6
2022-09-12T03:16:01.247Z,8
2022-09-12T03:20:01.934Z,8
2022-09-12T03:24:01.384Z,7
2022-09-12T03:28:02.084Z,6
2022-09-12T03:32:01.261Z,6
2022-09-12T03:36:01.845Z,8
2022-09-12T03:40:01.516Z,6
2022-09-12T03:44:01.867Z,6
2022-09-12T03:48:01.439Z,6
2022-09-12T03:52:01.806Z,8
2022-09-12T03:56:01.548Z,8
2022-09-12T04:00:04.394Z,6
2022-09-12T04:04:01.642Z,7
2022-09-12T04:08:01.302Z,7
2022-09-12T04:12:02.047Z,7
2022-09-12T04:16:01.558Z,6
2022-09-12T04:20:01.838Z,6
2022-09-12T04:24:01.902Z,7
2022-09-12T04:28:01.853Z,7
2022-09-12T04:32:01.353Z,7
2022-09-12T04:36:01.388Z,8
2022-09-12T04:40:02.058Z,5
2022-09-12T04:44:01.704Z,5
2022-09-12T04:48:02.181Z,5
2022-09-12T04:52:02.044Z,8
2022-09-12T04:56:01.306Z,8
2022-09-12T05:00:07.209Z,7
2022-09-12T05:04:02.030Z,7
2022-09-12T05:08:01.575Z,7
2022-09-12T05:12:04.703Z,8
2022-09-12T05:16:02.197Z,8
2022-09-12T05:20:01.969Z,8
2022-09-12T05:24:01.716Z,7
2022-09-12T05:28:01.949Z,8
2022-09-12T05:32:01.664Z,8
2022-09-12T05:36:02.106Z,7
2022-09-12T05:40:01.523Z,7
2022-09-12T05:44:01.431Z,7
2022-09-12T05:48:01.949Z,7
2022-09-12T05:52:02.223Z,7
2022-09-12T05:56:01.636Z,7
2022-09-12T06:00:04.339Z,8
2022-09-12T06:04:01.920Z,5
2022-09-12T06:08:01.957Z,5
2022-09-12T06:12:01.613Z,8
2022-09-12T06:16:01.999Z,8
2022-09-12T06:20:01.892Z,8
2022-09-12T06:24:01.436Z,7
2022-09-12T06:28:01.466Z,8
2022-09-12T06:32:01.594Z,8
2022-09-12T06:36:01.562Z,5
2022-09-12T06:40:02.386Z,7
2022-09-12T06:44:01.955Z,7
2022-09-12T06:48:01.487Z,7
2022-09-12T06:52:01.785Z,7
2022-09-12T06:56:01.740Z,7
2022-09-12T07:00:05.261Z,7
2022-09-12T07:04:02.045Z,8
2022-09-12T07:08:01.284Z,8
2022-09-12T07:12:01.832Z,6
2022-09-12T07:16:01.477Z,8
2022-09-12T07:20:01.711Z,8
2022-09-12T07:24:02.083Z,5
2022-09-12T07:28:01.906Z,7
2022-09-12T07:32:01.330Z,7
2022-09-12T07:36:01.372Z,7
2022-09-12T07:40:01.897Z,8
2022-09-12T07:44:01.329Z,8
2022-09-12T07:48:02.114Z,5
2022-09-12T07:52:02.002Z,7
2022-09-12T07:56:01.844Z,7
2022-09-12T08:00:04.493Z,7
2022-09-12T08:04:02.033Z,6
2022-09-12T08:08:02.211Z,6
2022-09-12T08:12:01.374Z,8
2022-09-12T08:16:01.761Z,5
2022-09-12T08:20:01.328Z,5
2022-09-12T08:24:01.892Z,5
2022-09-12T08:28:01.317Z,7
2022-09-12T08:32:01.940Z,7
2022-09-12T08:36:01.935Z,8
2022-09-12T08:40:02.254Z,6
2022-09-12T08:44:01.632Z,6
2022-09-12T08:48:02.009Z,7
2022-09-12T08:52:02.142Z,12
2022-09-12T08:56:01.985Z,12
2022-09-12T09:00:05.018Z,9
2022-09-12T09:04:01.456Z,13
2022-09-12T09:08:01.680Z,13
2022-09-12T09:12:01.532Z,12
2022-09-12T09:16:01.427Z,11
2022-09-12T09:20:02.178Z,11
2022-09-12T09:24:02.271Z,11
2022-09-12T09:28:01.885Z,8
2022-09-12T09:32:01.284Z,8
2022-09-12T09:36:02.119Z,8
2022-09-12T09:40:01.971Z,7
2022-09-12T09:44:01.490Z,7
2022-09-12T09:48:02.175Z,7
2022-09-12T09:52:01.983Z,8
2022-09-12T09:56:01.561Z,8
2022-09-12T10:00:04.265Z,6
2022-09-12T10:04:02.043Z,6
2022-09-12T10:08:01.576Z,6
2022-09-12T10:12:02.141Z,6
2022-09-12T10:16:01.419Z,5
2022-09-12T10:20:20.565Z,5
2022-09-12T10:24:02.218Z,6
2022-09-12T10:28:01.893Z,6
2022-09-12T10:32:02.144Z,6
2022-09-12T10:36:01.840Z,6
2022-09-12T10:40:01.677Z,6
2022-09-12T10:44:01.411Z,6
2022-09-12T10:48:06.879Z,8
2022-09-12T10:52:01.781Z,6
2022-09-12T10:56:01.530Z,6
2022-09-12T11:00:04.932Z,5
2022-09-12T11:04:02.048Z,6
2022-09-12T11:08:02.045Z,6
2022-09-12T11:12:01.491Z,8
2022-09-12T11:16:01.720Z,6
2022-09-12T11:20:01.938Z,6
2022-09-12T11:24:01.570Z,5
2022-09-12T11:28:01.283Z,6
2022-09-12T11:32:01.258Z,6
2022-09-12T11:36:02.059Z,5
2022-09-12T11:40:01.908Z,5
2022-09-12T11:44:01.419Z,5
2022-09-12T11:48:02.002Z,5
2022-09-12T11:52:02.020Z,5
2022-09-12T11:56:01.944Z,5
2022-09-12T12:00:06.785Z,5
2022-09-12T12:04:01.779Z,5
2022-09-12T12:08:02.029Z,5
2022-09-12T12:12:01.559Z,3
2022-09-12T12:16:02.199Z,3
2022-09-12T12:20:06.463Z,3
2022-09-12T12:24:02.225Z,6
2022-09-12T12:28:01.955Z,3
2022-09-12T12:32:01.828Z,3
2022-09-12T12:36:01.687Z,5
2022-09-12T12:40:01.732Z,5
2022-09-12T12:44:02.166Z,5
2022-09-12T12:48:04.071Z,6
2022-09-12T12:52:01.865Z,6
2022-09-12T12:56:01.821Z,6
2022-09-12T13:00:05.101Z,5
2022-09-12T13:04:02.017Z,6
2022-09-12T13:08:01.897Z,6
2022-09-12T13:12:01.924Z,5
2022-09-12T13:16:02.148Z,3
2022-09-12T13:20:26.075Z,3
2022-09-12T13:24:01.655Z,5
2022-09-12T13:28:01.633Z,3
2022-09-12T13:32:02.273Z,3
2022-09-12T13:36:01.910Z,5
2022-09-12T13:40:02.025Z,5
2022-09-12T13:44:01.721Z,5
2022-09-12T13:48:02.178Z,5
2022-09-12T13:52:01.596Z,6
2022-09-12T13:56:01.625Z,6
2022-09-12T14:00:04.528Z,3
2022-09-12T14:04:01.839Z,6
2022-09-12T14:08:02.073Z,6
2022-09-12T14:12:01.904Z,5
2022-09-12T14:16:02.048Z,5
2022-09-12T14:20:01.599Z,5
2022-09-12T14:24:01.437Z,5
2022-09-12T14:28:01.608Z,5
2022-09-12T14:32:01.913Z,5
2022-09-12T14:36:01.733Z,5
2022-09-12T14:40:01.598Z,3
2022-09-12T14:44:01.664Z,3
2022-09-12T14:48:02.089Z,5
2022-09-12T14:52:01.681Z,5
2022-09-12T14:56:01.965Z,5
2022-09-12T15:00:01.619Z,3
2022-09-12T15:04:01.939Z,5
2022-09-12T15:08:01.602Z,5
2022-09-12T15:12:01.501Z,5
2022-09-12T15:16:01.433Z,3
2022-09-12T15:20:01.431Z,7
2022-09-12T15:24:01.989Z,5
2022-09-12T15:28:02.088Z,3
2022-09-12T15:32:01.494Z,3
2022-09-12T15:36:01.749Z,5
2022-09-12T15:40:02.323Z,5
2022-09-12T15:44:02.067Z,5
2022-09-12T15:48:02.288Z,3
2022-09-12T15:52:01.690Z,2
2022-09-12T15:56:01.847Z,5
2022-09-12T16:00:06.501Z,3
2022-09-12T16:04:01.633Z,3
2022-09-12T16:08:02.229Z,3
2022-09-12T16:12:01.737Z,6
2022-09-12T16:16:01.498Z,3
2022-09-12T16:20:01.816Z,6
2022-09-12T16:24:01.278Z,3
2022-09-12T16:28:02.086Z,5
2022-09-12T16:32:01.917Z,6
2022-09-12T16:36:02.010Z,5
2022-09-12T16:40:02.001Z,5
2022-09-12T16:44:01.748Z,5
2022-09-12T16:48:02.039Z,3
2022-09-12T16:52:02.193Z,5
2022-09-12T16:56:01.655Z,5
2022-09-12T17:00:05.924Z,3
2022-09-12T17:04:01.697Z,4
2022-09-12T17:08:01.838Z,3
2022-09-12T17:12:01.703Z,5
2022-09-12T17:16:02.100Z,4
2022-09-12T17:20:01.712Z,5
2022-09-12T17:24:01.782Z,3
2022-09-12T17:28:02.025Z,5
2022-09-12T17:32:01.624Z,3
2022-09-12T17:36:01.757Z,5
2022-09-12T17:40:01.697Z,4
2022-09-12T17:44:01.984Z,6
2022-09-12T17:48:01.285Z,5
2022-09-12T17:52:01.921Z,5
2022-09-12T17:56:01.513Z,5
2022-09-12T18:00:05.046Z,5
2022-09-12T18:04:01.853Z,5
2022-09-12T18:08:02.028Z,5
2022-09-12T18:12:01.817Z,5
2022-09-12T18:16:02.020Z,4
2022-09-12T18:20:01.523Z,4
2022-09-12T18:24:01.856Z,5
2022-09-12T18:28:04.150Z,5
2022-09-12T18:32:01.245Z,6
2022-09-12T18:36:01.828Z,5
2022-09-12T18:40:01.855Z,5
2022-09-12T18:44:01.308Z,6
2022-09-12T18:48:02.160Z,6
2022-09-12T18:52:01.666Z,5
2022-09-12T18:56:01.264Z,5
2022-09-12T19:00:10.533Z,3
2022-09-12T19:04:01.478Z,4
2022-09-12T19:08:01.649Z,7
2022-09-12T19:12:01.660Z,5
2022-09-12T19:16:01.590Z,4
2022-09-12T19:20:02.023Z,5
2022-09-12T19:24:02.047Z,4
2022-09-12T19:28:01.911Z,4
2022-09-12T19:32:01.987Z,6
2022-09-12T19:36:01.638Z,3
2022-09-12T19:40:02.082Z,4
2022-09-12T19:44:02.065Z,6
2022-09-12T19:48:01.724Z,5
2022-09-12T19:52:01.389Z,5
2022-09-12T19:56:01.554Z,5
2022-09-12T20:00:03.304Z,5
2022-09-12T20:04:02.060Z,4
2022-09-12T20:08:01.879Z,6
2022-09-12T20:12:02.206Z,7
2022-09-12T20:16:01.266Z,5
2022-09-12T20:20:01.819Z,5
2022-09-12T20:24:01.944Z,6
2022-09-12T20:28:01.849Z,2
2022-09-12T20:32:01.672Z,5
2022-09-12T20:36:01.900Z,5
2022-09-12T20:40:01.596Z,5
2022-09-12T20:44:01.399Z,5
2022-09-12T20:48:01.350Z,6
2022-09-12T20:52:01.742Z,5
2022-09-12T20:56:01.951Z,6
2022-09-12T21:00:01.472Z,6
2022-09-12T21:04:02.186Z,4
2022-09-12T21:08:01.482Z,5
2022-09-12T21:12:01.673Z,5
2022-09-12T21:16:02.214Z,5
2022-09-12T21:20:02.127Z,6
2022-09-12T21:24:01.852Z,6
2022-09-12T21:28:02.139Z,4
2022-09-12T21:32:01.366Z,6
2022-09-12T21:36:01.629Z,6
2022-09-12T21:40:01.466Z,4
2022-09-12T21:44:01.377Z,8
2022-09-12T21:48:01.347Z,6
2022-09-12T21:52:01.316Z,5
2022-09-12T21:56:02.029Z,7
2022-09-12T22:00:11.285Z,5
2022-09-12T22:04:01.745Z,4
2022-09-12T22:08:01.353Z,5
2022-09-12T22:12:01.403Z,8
2022-09-12T22:16:02.321Z,4
2022-09-12T22:20:01.493Z,5
2022-09-12T22:24:01.451Z,5
2022-09-12T22:28:02.151Z,5
2022-09-12T22:32:02.147Z,5
2022-09-12T22:36:02.178Z,5
2022-09-12T22:40:02.076Z,5
2022-09-12T22:44:02.255Z,8
2022-09-12T22:48:04.980Z,5
2022-09-12T22:52:01.820Z,5
2022-09-12T22:56:02.160Z,5
2022-09-12T23:00:04.193Z,5
2022-09-12T23:04:01.557Z,5
2022-09-12T23:08:01.985Z,5
2022-09-12T23:12:01.834Z,5
2022-09-12T23:16:02.158Z,5
2022-09-12T23:20:01.985Z,5
2022-09-12T23:24:01.667Z,8
2022-09-12T23:28:01.396Z,6
2022-09-12T23:32:01.486Z,6
2022-09-12T23:36:01.883Z,10
2022-09-12T23:40:02.336Z,9
2022-09-12T23:44:01.262Z,9
2022-09-12T23:48:02.028Z,9
2022-09-12T23:52:01.992Z,5
2022-09-12T23:56:01.634Z,5
